createdAt,value
2023-02-16T00:00:36.009Z,0.20
2023-02-16T00:03:23.982Z,0.20
2023-02-16T00:06:16.667Z,0.20
2023-02-16T00:09:04.325Z,0.20
2023-02-16T00:12:11.953Z,0.20
2023-02-16T00:14:59.474Z,0.20
2023-02-16T00:17:47.147Z,0.20
2023-02-16T00:20:34.620Z,0.20
2023-02-16T00:23:22.122Z,0.20
2023-02-16T00:26:25.513Z,0.20
2023-02-16T00:29:29.328Z,0.20
2023-02-16T00:32:17.149Z,0.20
2023-02-16T00:35:17.938Z,0.20
2023-02-16T00:38:05.440Z,0.20
2023-02-16T00:40:52.996Z,0.20
2023-02-16T00:43:40.831Z,0.20
2023-02-16T00:46:28.579Z,0.20
2023-02-16T00:49:19.158Z,0.20
2023-02-16T00:52:29.761Z,0.10
2023-02-16T00:55:20.288Z,0.10
2023-02-16T00:58:16.070Z,0.10
2023-02-16T01:01:12.148Z,0.00
2023-02-16T01:04:04.674Z,0.00
2023-02-16T01:07:10.692Z,0.00
2023-02-16T01:10:16.883Z,0.10
2023-02-16T01:13:05.390Z,0.10
2023-02-16T01:15:53.664Z,0.20
2023-02-16T01:18:41.484Z,0.20
2023-02-16T01:21:28.999Z,0.20
2023-02-16T01:24:16.542Z,0.20
2023-02-16T01:27:04.308Z,0.20
2023-02-16T01:29:51.917Z,0.20
2023-02-16T01:32:39.537Z,0.10
2023-02-16T01:35:34.454Z,0.10
2023-02-16T01:38:28.823Z,0.10
2023-02-16T01:41:48.540Z,0.00
2023-02-16T01:44:58.587Z,0.10
2023-02-16T01:47:55.874Z,0.10
2023-02-16T01:51:26.454Z,0.00
2023-02-16T01:54:38.872Z,0.10
2023-02-16T01:57:53.145Z,0.00
2023-02-16T02:00:50.026Z,0.10
2023-02-16T02:03:56.226Z,0.00
2023-02-16T02:06:44.335Z,0.00
2023-02-16T02:09:50.305Z,-0.10
2023-02-16T02:13:24.732Z,-0.10
2023-02-16T02:16:16.568Z,-0.20
2023-02-16T02:19:04.565Z,-0.10
2023-02-16T02:22:55.446Z,-0.10
2023-02-16T02:26:27.582Z,-0.10
2023-02-16T02:29:53.492Z,-0.10
2023-02-16T02:33:41.882Z,-0.10
2023-02-16T02:37:17.114Z,-0.10
2023-02-16T02:40:35.276Z,-0.10
2023-02-16T02:43:43.186Z,-0.10
2023-02-16T02:46:36.649Z,-0.10
2023-02-16T02:49:24.564Z,-0.10
2023-02-16T02:52:12.200Z,-0.20
2023-02-16T02:55:18.249Z,-0.20
2023-02-16T02:58:42.814Z,-0.20
2023-02-16T03:01:33.647Z,-0.30
2023-02-16T03:04:29.121Z,-0.30
2023-02-16T03:07:17.884Z,-0.30
2023-02-16T03:10:26.093Z,-0.20
2023-02-16T03:13:25.222Z,-0.30
2023-02-16T03:16:28.062Z,-0.40
2023-02-16T03:19:37.686Z,-0.40
2023-02-16T03:22:44.655Z,-0.40
2023-02-16T03:25:54.646Z,-0.40
2023-02-16T03:29:04.113Z,-0.40
2023-02-16T03:31:55.405Z,-0.40
2023-02-16T03:34:43.646Z,-0.30
2023-02-16T03:37:32.508Z,-0.30
2023-02-16T03:40:30.201Z,-0.30
2023-02-16T03:43:17.849Z,-0.30
2023-02-16T03:46:05.637Z,-0.30
2023-02-16T03:48:53.226Z,-0.30
2023-02-16T03:51:40.864Z,-0.40
2023-02-16T03:54:28.398Z,-0.40
2023-02-16T03:57:17.117Z,-0.40
2023-02-16T04:00:05.574Z,-0.30
2023-02-16T04:02:53.136Z,-0.20
2023-02-16T04:05:42.289Z,-0.20
2023-02-16T04:08:29.873Z,-0.20
2023-02-16T04:11:35.986Z,-0.20
2023-02-16T04:14:23.471Z,-0.30
2023-02-16T04:17:11.030Z,-0.30
2023-02-16T04:19:58.790Z,-0.30
2023-02-16T04:22:47.775Z,-0.40
2023-02-16T04:25:36.065Z,-0.50
2023-02-16T04:28:23.587Z,-0.50
2023-02-16T04:31:11.183Z,-0.50
2023-02-16T04:33:58.887Z,-0.60
2023-02-16T04:36:46.404Z,-0.70
2023-02-16T04:39:34.301Z,-0.70
2023-02-16T04:42:21.811Z,-0.70
2023-02-16T04:45:11.968Z,-0.70
2023-02-16T04:47:59.432Z,-0.70
2023-02-16T04:50:46.973Z,-0.70
2023-02-16T04:53:34.436Z,-0.70
2023-02-16T04:56:22.060Z,-0.70
2023-02-16T04:59:09.614Z,-0.70
2023-02-16T05:01:57.944Z,-0.60
2023-02-16T05:04:45.763Z,-0.60
2023-02-16T05:07:33.446Z,-0.60
2023-02-16T05:10:21.132Z,-0.70
2023-02-16T05:13:29.608Z,-0.60
2023-02-16T05:16:17.236Z,-0.60
2023-02-16T05:19:04.840Z,-0.60
2023-02-16T05:21:52.320Z,-0.60
2023-02-16T05:24:40.773Z,-0.60
2023-02-16T05:27:30.643Z,-0.60
2023-02-16T05:30:18.414Z,-0.60
2023-02-16T05:33:05.939Z,-0.60
2023-02-16T05:35:53.462Z,-0.60
2023-02-16T05:38:41.092Z,-0.60
2023-02-16T05:41:28.654Z,-0.50
2023-02-16T05:44:17.350Z,-0.60
2023-02-16T05:47:05.289Z,-0.60
2023-02-16T05:49:52.796Z,-0.70
2023-02-16T05:52:40.329Z,-0.70
2023-02-16T05:55:29.067Z,-0.70
2023-02-16T05:58:16.601Z,-0.70
2023-02-16T06:01:04.667Z,-0.60
2023-02-16T06:03:52.726Z,-0.60
2023-02-16T06:06:41.497Z,-0.60
2023-02-16T06:09:29.112Z,-0.70
2023-02-16T06:12:16.842Z,-0.70
2023-02-16T06:15:04.999Z,-0.70
2023-02-16T06:17:52.548Z,-0.60
2023-02-16T06:20:41.777Z,-0.60
2023-02-16T06:23:29.284Z,-0.50
2023-02-16T06:26:18.548Z,-0.60
2023-02-16T06:29:07.254Z,-0.60
2023-02-16T06:31:54.957Z,-0.60
2023-02-16T06:34:42.804Z,-0.60
2023-02-16T06:37:30.721Z,-0.60
2023-02-16T06:40:19.279Z,-0.60
2023-02-16T06:43:06.901Z,-0.70
2023-02-16T06:45:54.462Z,-0.60
2023-02-16T06:48:42.017Z,-0.50
2023-02-16T06:51:29.972Z,-0.60
2023-02-16T06:54:18.906Z,-0.60
2023-02-16T06:57:06.521Z,-0.70
2023-02-16T06:59:54.152Z,-0.70
2023-02-16T07:02:43.604Z,-0.70
2023-02-16T07:05:31.237Z,-0.60
2023-02-16T07:08:18.815Z,-0.50
2023-02-16T07:11:06.608Z,-0.50
2023-02-16T07:13:54.334Z,-0.40
2023-02-16T07:16:42.324Z,-0.40
2023-02-16T07:19:32.846Z,-0.40
2023-02-16T07:22:20.439Z,-0.50
2023-02-16T07:25:08.379Z,-0.50
2023-02-16T07:27:55.909Z,-0.40
2023-02-16T07:30:43.773Z,-0.40
2023-02-16T07:33:31.304Z,-0.40
2023-02-16T07:36:19.050Z,-0.20
2023-02-16T07:39:06.589Z,-0.30
2023-02-16T07:41:54.241Z,-0.30
2023-02-16T07:44:42.006Z,-0.40
2023-02-16T07:47:29.541Z,-0.30
2023-02-16T07:50:17.094Z,-0.20
2023-02-16T07:53:04.687Z,-0.20
2023-02-16T07:55:52.385Z,-0.30
2023-02-16T07:58:40.088Z,-0.30
2023-02-16T08:01:30.109Z,-0.20
2023-02-16T08:04:17.586Z,-0.20
2023-02-16T08:07:05.073Z,-0.20
2023-02-16T08:09:52.918Z,-0.10
2023-02-16T08:12:40.553Z,-0.20
2023-02-16T08:15:28.097Z,-0.20
2023-02-16T08:18:15.632Z,-0.10
2023-02-16T08:21:16.756Z,-0.10
2023-02-16T08:24:08.810Z,-0.10
2023-02-16T08:26:56.892Z,-0.10
2023-02-16T08:29:44.387Z,0.00
2023-02-16T08:32:31.966Z,0.00
2023-02-16T08:35:20.538Z,0.00
2023-02-16T08:38:09.336Z,0.00
2023-02-16T08:40:56.838Z,-0.10
2023-02-16T08:43:44.617Z,-0.10
2023-02-16T08:46:34.348Z,0.00
2023-02-16T08:49:24.204Z,0.10
2023-02-16T08:52:12.558Z,0.10
2023-02-16T08:55:00.196Z,0.20
2023-02-16T08:57:47.700Z,0.30
2023-02-16T09:00:35.343Z,0.40
2023-02-16T09:03:23.706Z,0.30
2023-02-16T09:06:15.259Z,0.30
2023-02-16T09:09:05.304Z,0.40
2023-02-16T09:11:53.260Z,0.40
2023-02-16T09:14:42.285Z,0.40
2023-02-16T09:17:29.818Z,0.50
2023-02-16T09:20:18.005Z,0.50
2023-02-16T09:23:07.455Z,0.60
2023-02-16T09:25:55.360Z,0.60
2023-02-16T09:28:43.501Z,0.60
2023-02-16T09:31:35.705Z,0.60
2023-02-16T09:34:26.805Z,0.60
2023-02-16T09:37:15.077Z,0.50
2023-02-16T09:40:02.650Z,0.50
2023-02-16T09:43:20.776Z,0.50
2023-02-16T09:46:15.984Z,0.50
2023-02-16T09:49:05.376Z,0.50
2023-02-16T09:52:40.783Z,0.60
2023-02-16T09:55:49.609Z,0.60
2023-02-16T09:59:10.696Z,0.60
2023-02-16T10:02:55.907Z,0.60
2023-02-16T10:06:19.035Z,0.70
2023-02-16T10:09:16.578Z,0.70
2023-02-16T10:12:17.122Z,0.80
2023-02-16T10:15:22.520Z,0.90
2023-02-16T10:18:33.698Z,1.00
2023-02-16T10:21:31.565Z,1.10
2023-02-16T10:24:19.132Z,1.20
2023-02-16T10:27:15.528Z,1.20
2023-02-16T10:30:03.161Z,1.10
2023-02-16T10:33:26.608Z,1.10
2023-02-16T10:36:47.168Z,1.20
2023-02-16T10:40:12.896Z,1.30
2023-02-16T10:43:27.302Z,1.60
2023-02-16T10:46:27.478Z,1.60
2023-02-16T10:49:17.624Z,1.60
2023-02-16T10:52:08.257Z,1.60
2023-02-16T10:54:57.029Z,1.70
2023-02-16T10:57:53.198Z,1.60
2023-02-16T11:01:08.556Z,1.60
2023-02-16T11:03:56.067Z,1.50
2023-02-16T11:06:43.635Z,1.60
2023-02-16T11:09:32.425Z,1.60
2023-02-16T11:12:39.913Z,1.70
2023-02-16T11:15:29.182Z,1.70
2023-02-16T11:18:38.077Z,1.80
2023-02-16T11:21:55.315Z,1.80
2023-02-16T11:24:42.948Z,2.00
2023-02-16T11:27:30.559Z,2.20
2023-02-16T11:30:29.581Z,2.20
2023-02-16T11:33:28.432Z,2.30
2023-02-16T11:36:39.616Z,2.30
2023-02-16T11:39:35.483Z,2.30
2023-02-16T11:42:55.202Z,2.40
2023-02-16T11:45:43.317Z,2.50
2023-02-16T11:48:33.708Z,2.70
2023-02-16T11:51:39.921Z,2.90
2023-02-16T11:54:27.892Z,2.80
2023-02-16T11:57:23.148Z,2.90
2023-02-16T12:00:24.349Z,2.80
2023-02-16T12:03:46.437Z,2.70
2023-02-16T12:06:52.473Z,2.90
2023-02-16T12:10:03.787Z,3.00
2023-02-16T12:13:36.579Z,3.00
2023-02-16T12:17:01.940Z,3.20
2023-02-16T12:20:15.822Z,3.10
2023-02-16T12:23:18.449Z,3.10
2023-02-16T12:27:02.194Z,3.20
2023-02-16T12:30:03.427Z,3.20
2023-02-16T12:33:27.212Z,3.30
2023-02-16T12:37:22.608Z,3.30
2023-02-16T12:40:49.821Z,3.30
2023-02-16T12:43:56.244Z,3.40
2023-02-16T12:46:57.238Z,3.70
2023-02-16T12:49:49.773Z,3.90
2023-02-16T12:53:16.013Z,3.70
2023-02-16T12:56:14.592Z,3.80
2023-02-16T12:59:43.502Z,3.90
2023-02-16T13:02:44.753Z,3.80
2023-02-16T13:05:38.406Z,3.90
2023-02-16T13:08:40.275Z,4.10
2023-02-16T13:11:47.166Z,4.20
2023-02-16T13:14:43.230Z,4.30
2023-02-16T13:18:01.235Z,4.30
2023-02-16T13:21:12.075Z,4.40
2023-02-16T13:24:41.286Z,4.40
2023-02-16T13:27:48.524Z,4.50
2023-02-16T13:31:16.364Z,4.70
2023-02-16T13:34:26.972Z,4.70
2023-02-16T13:37:49.763Z,4.80
2023-02-16T13:41:11.866Z,4.90
2023-02-16T13:44:15.518Z,4.90
2023-02-16T13:47:05.507Z,4.90
2023-02-16T13:50:03.291Z,4.90
2023-02-16T13:52:54.853Z,4.90
2023-02-16T13:55:42.461Z,4.90
2023-02-16T13:58:33.185Z,4.90
2023-02-16T14:01:32.679Z,4.90
2023-02-16T14:04:23.413Z,5.00
2023-02-16T14:07:32.725Z,5.00
2023-02-16T14:10:59.037Z,5.00
2023-02-16T14:13:48.886Z,5.00
2023-02-16T14:16:36.841Z,4.80
2023-02-16T14:19:26.972Z,4.80
2023-02-16T14:22:21.564Z,4.90
2023-02-16T14:25:24.050Z,5.00
2023-02-16T14:28:52.492Z,5.00
2023-02-16T14:32:18.389Z,5.20
2023-02-16T14:35:18.383Z,5.30
2023-02-16T14:38:27.102Z,5.30
2023-02-16T14:41:23.566Z,5.40
2023-02-16T14:44:41.506Z,5.30
2023-02-16T14:47:46.941Z,5.30
2023-02-16T14:51:29.025Z,5.20
2023-02-16T14:54:54.934Z,5.20
2023-02-16T14:58:17.441Z,5.20
2023-02-16T15:01:13.545Z,5.10
2023-02-16T15:04:02.568Z,5.10
2023-02-16T15:06:50.844Z,5.00
2023-02-16T15:09:42.978Z,5.00
2023-02-16T15:12:32.864Z,5.00
2023-02-16T15:15:29.164Z,4.90
2023-02-16T15:18:24.518Z,4.80
2023-02-16T15:21:28.576Z,4.70
2023-02-16T15:24:24.889Z,4.70
2023-02-16T15:27:23.582Z,4.60
2023-02-16T15:30:26.031Z,4.50
2023-02-16T15:33:38.623Z,4.50
2023-02-16T15:36:40.212Z,4.40
2023-02-16T15:39:48.443Z,4.30
2023-02-16T15:42:45.488Z,4.20
2023-02-16T15:45:38.149Z,4.20
2023-02-16T15:48:39.338Z,4.10
2023-02-16T15:51:35.430Z,4.10
2023-02-16T15:54:35.891Z,4.00
2023-02-16T15:57:37.377Z,4.00
2023-02-16T16:00:26.277Z,3.90
2023-02-16T16:03:18.994Z,3.80
2023-02-16T16:06:07.493Z,3.60
2023-02-16T16:08:55.652Z,3.50
2023-02-16T16:11:43.585Z,3.30
2023-02-16T16:14:36.812Z,3.20
2023-02-16T16:17:34.744Z,3.10
2023-02-16T16:20:39.210Z,2.90
2023-02-16T16:23:28.535Z,2.80
2023-02-16T16:26:22.425Z,2.60
2023-02-16T16:29:32.181Z,2.50
2023-02-16T16:32:28.941Z,2.30
2023-02-16T16:35:22.965Z,2.10
2023-02-16T16:38:33.455Z,2.00
2023-02-16T16:41:29.189Z,1.90
2023-02-16T16:44:39.644Z,1.70
2023-02-16T16:47:40.484Z,1.60
2023-02-16T16:50:35.723Z,1.50
2023-02-16T16:53:30.207Z,1.40
2023-02-16T16:56:18.825Z,1.30
2023-02-16T16:59:07.784Z,1.20
2023-02-16T17:01:55.358Z,1.10
2023-02-16T17:04:43.182Z,1.00
2023-02-16T17:07:32.438Z,0.90
2023-02-16T17:10:22.265Z,0.90
2023-02-16T17:13:17.014Z,0.80
2023-02-16T17:16:08.866Z,0.80
2023-02-16T17:18:56.756Z,0.70
2023-02-16T17:21:46.335Z,0.70
2023-02-16T17:24:33.815Z,0.60
2023-02-16T17:27:21.446Z,0.60
2023-02-16T17:30:11.236Z,0.50
2023-02-16T17:32:59.406Z,0.40
2023-02-16T17:35:48.195Z,0.40
2023-02-16T17:38:36.193Z,0.40
2023-02-16T17:41:29.640Z,0.40
2023-02-16T17:44:17.637Z,0.30
2023-02-16T17:47:05.418Z,0.30
2023-02-16T17:49:53.223Z,0.30
2023-02-16T17:52:42.493Z,0.30
2023-02-16T17:55:30.371Z,0.40
2023-02-16T17:58:19.634Z,0.30
2023-02-16T18:01:07.737Z,0.30
2023-02-16T18:03:55.904Z,0.20
2023-02-16T18:06:43.455Z,0.20
2023-02-16T18:09:31.394Z,0.20
2023-02-16T18:12:19.477Z,0.20
2023-02-16T18:15:07.410Z,0.10
2023-02-16T18:17:55.504Z,0.10
2023-02-16T18:20:44.038Z,0.00
2023-02-16T18:23:32.017Z,0.00
2023-02-16T18:26:19.512Z,0.00
2023-02-16T18:29:07.166Z,0.00
2023-02-16T18:31:54.788Z,0.00
2023-02-16T18:34:42.563Z,-0.10
2023-02-16T18:37:30.134Z,-0.10
2023-02-16T18:40:20.432Z,-0.20
2023-02-16T18:43:09.069Z,-0.20
2023-02-16T18:45:57.905Z,-0.20
2023-02-16T18:48:45.618Z,-0.20
2023-02-16T18:51:33.796Z,-0.20
2023-02-16T18:54:21.344Z,-0.20
2023-02-16T18:57:08.890Z,-0.20
2023-02-16T18:59:56.547Z,-0.20
2023-02-16T19:02:44.232Z,-0.30
2023-02-16T19:05:32.705Z,-0.30
2023-02-16T19:08:20.442Z,-0.30
2023-02-16T19:11:08.389Z,-0.30
2023-02-16T19:13:55.959Z,-0.30
2023-02-16T19:16:43.652Z,-0.20
2023-02-16T19:19:32.128Z,-0.10
2023-02-16T19:22:19.724Z,-0.20
2023-02-16T19:25:08.623Z,-0.10
2023-02-16T19:27:56.425Z,-0.20
2023-02-16T19:30:44.109Z,-0.20
2023-02-16T19:33:32.758Z,-0.30
2023-02-16T19:36:22.555Z,-0.30
2023-02-16T19:39:12.209Z,-0.30
2023-02-16T19:42:00.004Z,-0.40
2023-02-16T19:44:47.717Z,-0.50
2023-02-16T19:47:35.508Z,-0.50
2023-02-16T19:50:23.222Z,-0.50
2023-02-16T19:53:11.238Z,-0.40
2023-02-16T19:55:59.886Z,-0.50
2023-02-16T19:58:48.909Z,-0.50
2023-02-16T20:01:36.571Z,-0.40
2023-02-16T20:04:24.524Z,-0.40
2023-02-16T20:07:12.612Z,-0.40
2023-02-16T20:10:00.334Z,-0.40
2023-02-16T20:12:47.996Z,-0.40
2023-02-16T20:15:35.675Z,-0.40
2023-02-16T20:18:23.307Z,-0.40
2023-02-16T20:21:21.775Z,-0.30
2023-02-16T20:24:11.013Z,-0.30
2023-02-16T20:26:58.578Z,-0.20
2023-02-16T20:29:46.507Z,0.00
2023-02-16T20:32:34.679Z,-0.10
2023-02-16T20:35:22.451Z,-0.10
2023-02-16T20:38:10.142Z,0.00
2023-02-16T20:40:57.841Z,0.00
2023-02-16T20:43:45.587Z,0.00
2023-02-16T20:46:33.934Z,0.00
2023-02-16T20:49:21.749Z,0.00
2023-02-16T20:52:10.754Z,0.10
2023-02-16T20:54:58.848Z,0.20
2023-02-16T20:57:46.485Z,0.20
2023-02-16T21:00:34.431Z,0.20
2023-02-16T21:03:22.386Z,0.30
2023-02-16T21:06:10.545Z,0.30
2023-02-16T21:08:59.145Z,0.30
2023-02-16T21:11:46.875Z,0.20
2023-02-16T21:14:34.531Z,0.20
2023-02-16T21:17:22.594Z,0.20
2023-02-16T21:20:10.834Z,0.30
2023-02-16T21:22:58.505Z,0.30
2023-02-16T21:25:46.073Z,0.20
2023-02-16T21:28:34.784Z,0.20
2023-02-16T21:31:25.998Z,0.20
2023-02-16T21:34:13.724Z,0.20
2023-02-16T21:37:01.399Z,0.10
2023-02-16T21:40:07.627Z,0.00
2023-02-16T21:42:55.663Z,0.00
2023-02-16T21:45:46.121Z,-0.10
2023-02-16T21:48:46.740Z,-0.10
2023-02-16T21:51:38.355Z,-0.20
2023-02-16T21:54:46.024Z,-0.30
2023-02-16T21:57:33.931Z,-0.30
2023-02-16T22:00:21.532Z,-0.40
2023-02-16T22:03:12.651Z,-0.40
2023-02-16T22:06:06.230Z,-0.50
2023-02-16T22:08:54.809Z,-0.60
2023-02-16T22:11:42.476Z,-0.60
2023-02-16T22:14:30.298Z,-0.60
2023-02-16T22:17:17.985Z,-0.60
2023-02-16T22:20:06.469Z,-0.60
2023-02-16T22:22:54.190Z,-0.60
2023-02-16T22:25:41.774Z,-0.60
2023-02-16T22:28:29.397Z,-0.60
2023-02-16T22:31:19.424Z,-0.60
2023-02-16T22:34:13.183Z,-0.60
2023-02-16T22:37:00.986Z,-0.50
2023-02-16T22:39:48.664Z,-0.50
2023-02-16T22:42:36.536Z,-0.40
2023-02-16T22:45:24.355Z,-0.30
2023-02-16T22:48:11.875Z,-0.30
2023-02-16T22:51:05.382Z,-0.20
2023-02-16T22:53:53.017Z,-0.20
2023-02-16T22:56:41.337Z,-0.10
2023-02-16T22:59:28.918Z,0.00
2023-02-16T23:02:16.687Z,0.00
2023-02-16T23:05:05.800Z,0.00
2023-02-16T23:07:53.553Z,0.00
2023-02-16T23:10:59.886Z,0.00
2023-02-16T23:13:47.635Z,0.00
2023-02-16T23:16:36.578Z,0.10
2023-02-16T23:19:26.931Z,0.10
2023-02-16T23:22:14.846Z,0.10
2023-02-16T23:25:21.818Z,0.10
2023-02-16T23:28:11.485Z,0.10
2023-02-16T23:30:59.454Z,0.10
2023-02-16T23:33:48.101Z,0.10
2023-02-16T23:36:38.150Z,0.10
2023-02-16T23:39:25.824Z,0.00
2023-02-16T23:42:13.328Z,0.00
2023-02-16T23:45:00.952Z,0.00
2023-02-16T23:47:48.586Z,0.00
2023-02-16T23:50:36.336Z,0.00
2023-02-16T23:53:26.699Z,0.10
2023-02-16T23:56:20.960Z,0.10
2023-02-16T23:59:08.703Z,0.20
